Flight Track Log - Related Links

Times and Time Zones

All times are in EDT time to prevent confusion due to time zone crossing. See the C-GAWM flight status page for this flight to view local times or setup timezone preferences in your user account.


Time Position Orientation Groundspeed Altitude Reporting Facility
EDT Latitude Longitude Course Direction KTS MPH feet Rate Location/Type
Mon 02:39:21 AM 53.2833 -113.6000 230° Southwest 80 92 2,800  Level Edmonton Center
Mon 02:40:21 AM 53.2667 -113.6333 230° Southwest 110 127 3,600 850 Climbing Edmonton Center
Mon 02:41:21 AM 53.2167 -113.6500 191° South 120 138 4,500 900 Climbing Edmonton Center
Mon 02:42:21 AM 53.2000 -113.6167 130° Southeast 130 150 5,400 950 Climbing Edmonton Center
Mon 02:43:21 AM 53.1667 -113.5833 149° Southeast 130 150 6,400 1,000 Climbing Edmonton Center
Mon 02:44:21 AM 53.1333 -113.5500 149° Southeast 140 161 7,400 1,000 Climbing Edmonton Center
Mon 02:45:21 AM 53.1167 -113.4667 108° East 140 161 8,400 800 Climbing Edmonton Center
Mon 02:46:21 AM 53.1167 -113.4000 90° East 150 173 9,000 300 Climbing Edmonton Center
Mon 02:47:21 AM 53.1167 -113.3167 90° East 170 196 9,000  Level Edmonton Center
Mon 02:48:21 AM 53.1167 -113.2333 90° East 180 207 9,000  Level Edmonton Center
Mon 02:49:21 AM 53.1000 -113.1500 108° East 180 207 9,000  Level Edmonton Center
Mon 02:50:21 AM 53.1000 -113.0833 90° East 180 207 9,000  Level Edmonton Center
Mon 02:51:21 AM 53.1000 -112.9833 90° East 180 207 9,000  Level Edmonton Center
Mon 02:52:21 AM 53.0833 -112.9167 113° Southeast 180 207 9,000  Level Edmonton Center
Mon 02:53:21 AM 53.0833 -112.8000 90° East 180 207 9,000  Level Edmonton Center
Mon 02:54:21 AM 53.0833 -112.7500 90° East 180 207 9,000  Level Edmonton Center
Mon 02:55:21 AM 53.0667 -112.6667 108° East 180 207 9,000  Level Edmonton Center
Mon 02:56:21 AM 53.0667 -112.5667 90° East 180 207 9,000  Level Edmonton Center
Mon 02:57:21 AM 53.0667 -112.4833 90° East 180 207 9,000  Level Edmonton Center
Mon 02:58:21 AM 53.0500 -112.4000 108° East 180 207 9,000  Level Edmonton Center
Mon 02:59:21 AM 53.0667 -112.3167 72° East 180 207 9,000  Level Edmonton Center
Mon 03:00:21 AM 53.0500 -112.2333 108° East 180 207 9,000  Level Edmonton Center
Mon 03:01:21 AM 53.0333 -112.1500 108° East 180 207 9,000  Level Edmonton Center
Mon 03:02:21 AM 53.0500 -112.0667 72° East 180 207 9,000  Level Edmonton Center
Mon 03:03:21 AM 53.0333 -111.9667 105° East 180 207 9,000  Level Edmonton Center
Mon 03:04:21 AM 53.0167 -111.8833 108° East 180 207 9,000  Level Edmonton Center
Mon 03:05:21 AM 53.0333 -111.8000 72° East 180 207 9,000  Level Edmonton Center
Mon 03:06:21 AM 53.0167 -111.7167 108° East 180 207 9,000  Level Edmonton Center
Mon 03:07:21 AM 53.0000 -111.6333 108° East 180 207 9,000  Level Edmonton Center
Mon 03:07:56 AM 53.0167 -111.6167 31° Northeast 180 207 9,000  Level Winnipeg Center
Mon 03:08:56 AM 53.0167 -111.5333 90° East 180 207 9,000  Level Winnipeg Center
Mon 03:09:56 AM 53.0000 -111.4667 113° Southeast 180 207 9,000  Level Winnipeg Center
Mon 03:10:56 AM 53.0000 -111.3833 90° East 180 207 9,000  Level Winnipeg Center
Mon 03:11:56 AM 52.9833 -111.3000 108° East 180 207 9,000  Level Winnipeg Center
Mon 03:12:56 AM 53.0000 -111.2167 72° East 180 207 9,000  Level Winnipeg Center
Mon 03:13:56 AM 52.9833 -111.1333 108° East 180 207 9,000  Level Winnipeg Center
Mon 03:14:56 AM 52.9833 -111.0500 90° East 180 207 9,000  Level Winnipeg Center
Mon 03:15:56 AM 52.9667 -110.9833 113° Southeast 180 207 9,000  Level Winnipeg Center
Mon 03:17:29 AM 52.9500 -110.8000 99° East 200 230 9,000  Level Edmonton Center
Mon 03:18:29 AM 52.9500 -110.7167 90° East 190 219 9,000  Level Edmonton Center
Mon 03:19:29 AM 52.9333 -110.6333 108° East 180 207 9,000  Level Edmonton Center
Mon 03:20:29 AM 52.9500 -110.5500 72° East 180 207 9,000  Level Edmonton Center
Mon 03:21:29 AM 52.9333 -110.4667 108° East 180 207 9,000  Level Edmonton Center
Mon 03:22:29 AM 52.9333 -110.3833 90° East 180 207 9,000  Level Edmonton Center
Mon 03:23:29 AM 52.9167 -110.3000 108° East 180 207 9,000  Level Edmonton Center
Mon 03:24:29 AM 52.9167 -110.2167 90° East 180 207 9,000  Level Edmonton Center
Mon 03:25:29 AM 52.9167 -110.1500 90° East 180 207 9,000  Level Edmonton Center
Mon 03:26:29 AM 52.9167 -110.0667 90° East 180 207 9,000  Level Edmonton Center
Mon 03:27:29 AM 52.9167 -109.9833 90° East 180 207 9,000  Level Edmonton Center
Mon 03:28:29 AM 52.9000 -109.9000 108° East 180 207 9,000  Level Edmonton Center
Mon 03:29:29 AM 52.9000 -109.8167 90° East 190 219 9,000  Level Edmonton Center
Mon 03:30:29 AM 52.9000 -109.7333 90° East 180 207 9,000  Level Edmonton Center
Mon 03:31:29 AM 52.9000 -109.6500 90° East 180 207 9,000  Level Edmonton Center
Mon 03:32:17 AM 52.9000 -109.6167 90° East 180 207 9,000  Level Winnipeg Center
Mon 03:33:17 AM 52.8833 -109.5167 105° East 180 207 9,000  Level Winnipeg Center
Mon 03:34:17 AM 52.9000 -109.4333 72° East 180 207 9,000  Level Winnipeg Center
Mon 03:35:17 AM 52.8833 -109.3500 108° East 190 219 9,000  Level Winnipeg Center
Mon 03:36:17 AM 52.8833 -109.2667 90° East 180 207 9,000  Level Winnipeg Center
Mon 03:38:17 AM 52.8667 -109.1167 100° East 180 207 9,000  Level Winnipeg Center
Mon 03:39:17 AM 52.8667 -109.0333 90° East 190 219 9,000  Level Winnipeg Center
Mon 03:40:17 AM 52.8667 -108.9500 90° East 180 207 9,000  Level Winnipeg Center
Mon 03:41:17 AM 52.8500 -108.8667 108° East 190 219 9,000  Level Winnipeg Center
Mon 03:43:10 AM 52.8333 -108.6667 98° East 220 253 9,000  Level Edmonton Center
Mon 03:44:10 AM 52.8167 -108.5667 105° East 180 207 9,000  Level Edmonton Center
Mon 03:45:30 AM 52.8167 -108.5000 90° East 200 230 9,000  Level Winnipeg Center
Mon 03:46:30 AM 52.8333 -108.4167 72° East 190 219 9,000  Level Winnipeg Center
Mon 03:47:30 AM 52.8167 -108.3333 108° East 180 207 9,000  Level Winnipeg Center
Mon 03:48:30 AM 52.8167 -108.2500 90° East 190 219 9,000  Level Winnipeg Center
Mon 03:49:30 AM 52.8000 -108.1500 105° East 190 219 9,000  Level Winnipeg Center
Mon 03:50:30 AM 52.8000 -108.0667 90° East 190 219 9,000  Level Winnipeg Center
Mon 03:51:30 AM 52.8000 -107.9833 90° East 180 207 9,000  Level Winnipeg Center
Mon 03:53:10 AM 52.7833 -107.8500 102° East 190 219 9,000  Level Winnipeg Center
Mon 03:54:10 AM 52.7667 -107.7833 112° Southeast 190 219 9,000  Level Winnipeg Center
Mon 03:55:10 AM 52.7667 -107.6667 90° East 190 219 9,000  Level Winnipeg Center
Mon 03:56:10 AM 52.7667 -107.5833 90° East 190 219 9,000  Level Winnipeg Center
Mon 03:57:10 AM 52.7667 -107.5000 90° East 190 219 9,000  Level Winnipeg Center
Mon 03:58:10 AM 52.7500 -107.4167 108° East 190 219 9,000  Level Winnipeg Center
Mon 03:59:10 AM 52.7333 -107.3667 119° Southeast 180 207 9,000  Level Winnipeg Center
Mon 04:00:10 AM 52.7333 -107.2667 90° East 180 207 9,000  Level Winnipeg Center
Mon 04:01:10 AM 52.7333 -107.2000 90° East 180 207 9,000  Level Winnipeg Center
Mon 04:02:10 AM 52.7333 -107.1000 90° East 180 207 9,000  Level Winnipeg Center
Mon 04:03:10 AM 52.7167 -107.0167 108° East 180 207 9,000  Level Winnipeg Center
Mon 04:04:10 AM 52.7167 -106.9333 90° East 180 207 9,000  Level Winnipeg Center
Mon 04:05:10 AM 52.7000 -106.8500 108° East 180 207 9,000  Level Winnipeg Center
Mon 04:06:10 AM 52.6833 -106.7667 108° East 180 207 9,000  Level Winnipeg Center
Mon 04:07:10 AM 52.7000 -106.6833 72° East 190 219 9,000  Level Winnipeg Center
Mon 04:08:10 AM 52.6833 -106.6000 108° East 190 219 9,000  Level Winnipeg Center
Mon 04:09:10 AM 52.6833 -106.5167 90° East 180 207 9,000  Level Winnipeg Center
Mon 04:10:10 AM 52.6667 -106.4167 105° East 180 207 9,000  Level Winnipeg Center
Mon 04:11:10 AM 52.6500 -106.3333 108° East 190 219 9,000  Level Winnipeg Center
Mon 04:12:10 AM 52.6500 -106.2500 90° East 190 219 9,000  Level Winnipeg Center
Mon 04:13:10 AM 52.6500 -106.1667 90° East 190 219 9,000 -50 Level Winnipeg Center
Mon 04:14:10 AM 52.6500 -106.0833 90° East 190 219 8,900 -50 Descending Winnipeg Center
Mon 04:15:10 AM 52.6333 -106.0000 108° East 190 219 8,900  Level Winnipeg Center
Mon 04:16:10 AM 52.6167 -105.9167 108° East 190 219 8,900  Level Winnipeg Center
Mon 04:17:10 AM 52.6167 -105.8333 90° East 190 219 8,900  Level Winnipeg Center
Mon 04:18:10 AM 52.6167 -105.7500 90° East 180 207 8,900  Level Winnipeg Center
Mon 04:19:10 AM 52.6000 -105.6667 108° East 190 219 8,900  Level Winnipeg Center
Mon 04:20:10 AM 52.6000 -105.5833 90° East 190 219 8,900  Level Winnipeg Center
Mon 04:21:10 AM 52.5833 -105.5000 108° East 180 207 8,900  Level Winnipeg Center
Mon 04:22:10 AM 52.5833 -105.4000 90° East 180 207 8,900  Level Winnipeg Center
Mon 04:23:10 AM 52.5667 -105.3167 108° East 180 207 8,900  Level Winnipeg Center
Mon 04:24:10 AM 52.5667 -105.2333 90° East 180 207 8,900  Level Winnipeg Center
Mon 04:25:10 AM 52.5667 -105.1500 90° East 180 207 8,900  Level Winnipeg Center
Mon 04:26:10 AM 52.5500 -105.0667 108° East 180 207 8,900  Level Winnipeg Center
Mon 04:27:10 AM 52.5333 -105.0167 119° Southeast 180 207 8,900  Level Winnipeg Center
Mon 04:28:10 AM 52.5167 -104.9333 108° East 180 207 8,900  Level Winnipeg Center
Mon 04:29:10 AM 52.5333 -104.8500 72° East 180 207 8,900  Level Winnipeg Center
Mon 04:30:10 AM 52.5167 -104.7667 108° East 180 207 8,900  Level Winnipeg Center
Mon 04:31:10 AM 52.5000 -104.6833 108° East 180 207 8,900  Level Winnipeg Center
Mon 04:32:10 AM 52.5000 -104.5833 90° East 180 207 8,900  Level Winnipeg Center
Mon 04:33:10 AM 52.4833 -104.5000 108° East 180 207 8,900  Level Winnipeg Center
Mon 04:34:10 AM 52.4667 -104.4167 108° East 180 207 8,900  Level Winnipeg Center
Mon 04:35:10 AM 52.4833 -104.3333 72° East 180 207 8,900  Level Winnipeg Center
Mon 04:36:10 AM 52.4667 -104.2833 119° Southeast 180 207 8,900  Level Winnipeg Center
Mon 04:37:10 AM 52.4500 -104.2000 108° East 180 207 8,900  Level Winnipeg Center
Mon 04:38:10 AM 52.4500 -104.1167 90° East 180 207 8,900  Level Winnipeg Center
Mon 04:39:10 AM 52.4500 -104.0333 90° East 180 207 8,900  Level Winnipeg Center
Mon 04:40:10 AM 52.4333 -103.9500 108° East 180 207 8,900  Level Winnipeg Center
Mon 04:41:10 AM 52.4333 -103.8667 90° East 180 207 8,900  Level Winnipeg Center
Mon 04:43:11 AM 52.4000 -103.7167 110° East 200 230 8,900  Level Winnipeg Center
Mon 04:46:00 AM 52.3860 -103.5740 99° East  Level FlightAware Approximate
Mon 04:53:00 AM 52.3306 -103.0251 99° East  Level FlightAware Approximate
Mon 04:54:00 AM 52.3224 -102.9468 100° East  Level FlightAware Approximate
Mon 04:55:00 AM 52.3143 -102.8685 100° East  Level FlightAware Approximate
Mon 04:56:00 AM 52.3060 -102.7903 100° East  Level FlightAware Approximate
Mon 04:57:00 AM 52.2976 -102.7123 101° East  Level FlightAware Approximate
Mon 04:58:00 AM 52.2885 -102.6343 101° East  Level FlightAware Approximate
Mon 04:59:00 AM 52.2794 -102.5564 101° East  Level FlightAware Approximate
Mon 05:00:00 AM 52.2702 -102.4785 101° East  Level FlightAware Approximate
Mon 05:01:00 AM 52.2609 -102.4006 101° East  Level FlightAware Approximate
Mon 05:02:00 AM 52.2517 -102.3228 101° East  Level FlightAware Approximate
Mon 05:03:00 AM 52.2423 -102.2450 101° East  Level FlightAware Approximate
Mon 05:04:00 AM 52.2329 -102.1672 101° East  Level FlightAware Approximate
Mon 05:05:00 AM 52.2235 -102.0895 101° East  Level FlightAware Approximate
Mon 05:06:00 AM 52.2142 -102.0117 100° East  Level FlightAware Approximate
Mon 05:07:00 AM 52.2053 -101.9339 101° East  Level FlightAware Approximate
Mon 05:08:00 AM 52.1964 -101.8560 101° East  Level FlightAware Approximate
Mon 05:09:00 AM 52.1874 -101.7782 101° East  Level FlightAware Approximate
Mon 05:10:00 AM 52.1784 -101.7004 101° East  Level FlightAware Approximate
Mon 05:11:00 AM 52.1693 -101.6227 101° East  Level FlightAware Approximate
Mon 05:12:00 AM 52.1589 -101.5454 103° East  Level FlightAware Approximate
Mon 05:13:00 AM 52.1480 -101.4683 103° East  Level FlightAware Approximate
Mon 05:14:00 AM 52.1370 -101.3913 103° East  Level FlightAware Approximate
Mon 05:15:00 AM 52.1259 -101.3143 103° East  Level FlightAware Approximate
Mon 05:16:00 AM 52.1167 -101.2370 90° East  Level FlightAware Approximate
Mon 05:17:00 AM 52.1167 -101.2333 90° East  Level FlightAware Approximate
Mon 05:18:00 AM 52.1206 -101.2364 90° East  Level Estimated
Mon 05:19:00 AM 52.1167 -101.2333 90° East  Level FlightAware Approximate
Mon 05:20:00 AM 52.1206 -101.2364 90° East  Level Estimated
Mon 05:21:00 AM 52.1167 -101.2333 90° East  Level FlightAware Approximate
Mon 05:22:00 AM 52.1206 -101.2364 90° East  Level Estimated
Mon 05:23:00 AM 52.1167 -101.2333 90° East  Level FlightAware Approximate
Mon 05:24:00 AM 52.1206 -101.2364 90° East  Level Estimated
Mon 05:25:00 AM 52.1167 -101.2333 90° East  Level FlightAware Approximate
Mon 05:26:00 AM 52.1206 -101.2364 90° East  Level Estimated
Mon 05:27:00 AM 52.1167 -101.2333 90° East  Level FlightAware Approximate
Mon 05:28:00 AM 52.1206 -101.2364 90° East  Level Estimated
Mon 05:29:00 AM 52.1167 -101.2333 90° East  Level FlightAware Approximate
Mon 05:30:00 AM 52.1206 -101.2364 90° East  Level Estimated
Mon 05:31:00 AM 52.1167 -101.2333 90° East  Level FlightAware Approximate

Login

Don't have an account? Register now (free) for customized features, flight alerts, and more!